createdAt,value
2022-08-10T00:01:00.231Z,100996.00
2022-08-10T00:03:43.941Z,101008.63
2022-08-10T00:06:20.398Z,100988.00
2022-08-10T00:08:50.708Z,101004.47
2022-08-10T00:11:29.801Z,101004.84
2022-08-10T00:14:00.786Z,101004.13
2022-08-10T00:16:51.302Z,101000.66
2022-08-10T00:19:25.997Z,101010.56
2022-08-10T00:22:33.920Z,101010.81
2022-08-10T00:25:15.549Z,100995.13
2022-08-10T00:28:02.596Z,101001.44
2022-08-10T00:30:47.294Z,100999.44
2022-08-10T00:33:29.738Z,100993.53
2022-08-10T00:36:18.193Z,100996.50
2022-08-10T00:38:50.093Z,100994.53
2022-08-10T00:41:31.551Z,100982.31
2022-08-10T00:44:11.532Z,100989.53
2022-08-10T00:46:42.455Z,100993.09
2022-08-10T00:49:30.791Z,100990.47
2022-08-10T00:52:08.415Z,100990.72
2022-08-10T00:54:48.850Z,101002.94
2022-08-10T00:57:45.676Z,100988.13
2022-08-10T01:00:28.292Z,100999.00
2022-08-10T01:03:05.704Z,100990.88
2022-08-10T01:05:54.139Z,101004.19
2022-08-10T01:08:49.794Z,101003.47
2022-08-10T01:12:39.280Z,101003.97
2022-08-10T01:15:16.955Z,101007.66
2022-08-10T01:18:42.103Z,100999.63
2022-08-10T01:22:03.174Z,101011.03
2022-08-10T01:24:59.674Z,101006.94
2022-08-10T01:28:01.037Z,100978.66
2022-08-10T01:30:39.870Z,100987.66
2022-08-10T01:33:58.601Z,101001.00
2022-08-10T01:36:47.216Z,100995.31
2022-08-10T01:39:32.111Z,100997.53
2022-08-10T01:42:03.059Z,101004.09
2022-08-10T01:44:39.595Z,100988.31
2022-08-10T01:47:36.782Z,100988.41
2022-08-10T01:50:30.763Z,100997.41
2022-08-10T01:53:12.371Z,101014.59
2022-08-10T01:55:42.569Z,101004.34
2022-08-10T01:58:14.328Z,101013.25
2022-08-10T02:00:48.602Z,101000.78
2022-08-10T02:03:20.078Z,101003.25
2022-08-10T02:05:56.095Z,101013.63
2022-08-10T02:08:26.795Z,101014.34
2022-08-10T02:10:57.395Z,101004.75
2022-08-10T02:13:29.766Z,101019.78
2022-08-10T02:16:02.562Z,101004.13
2022-08-10T02:18:34.409Z,101014.75
2022-08-10T02:21:07.007Z,101013.84
2022-08-10T02:23:39.742Z,101014.22
2022-08-10T02:26:12.150Z,101011.91
2022-08-10T02:28:41.308Z,101014.34
2022-08-10T02:31:17.178Z,101011.78
2022-08-10T02:33:57.220Z,101008.28
2022-08-10T02:36:34.574Z,100995.22
2022-08-10T02:39:09.278Z,100996.34
2022-08-10T02:45:20.243Z,100999.41
2022-08-10T02:45:31.170Z,101008.28
2022-08-10T02:48:07.490Z,101012.22
2022-08-10T02:50:38.832Z,101003.47
2022-08-10T02:53:54.403Z,101014.09
2022-08-10T02:56:46.466Z,101024.31
2022-08-10T02:59:22.226Z,101014.03
2022-08-10T03:01:54.288Z,101014.19
2022-08-10T03:04:55.627Z,101002.81
2022-08-10T03:07:43.399Z,101014.75
2022-08-10T03:10:21.638Z,101015.00
2022-08-10T03:12:56.606Z,101024.63
2022-08-10T03:15:31.610Z,101009.69
2022-08-10T03:18:02.039Z,101017.72
2022-08-10T03:20:40.138Z,101009.97
2022-08-10T03:23:16.392Z,101016.34
2022-08-10T03:25:54.220Z,101022.75
2022-08-10T03:28:25.713Z,101016.81
2022-08-10T03:30:55.245Z,101017.81
2022-08-10T03:33:27.738Z,101027.69
2022-08-10T03:36:40.601Z,101018.81
2022-08-10T03:38:48.651Z,101031.50
2022-08-10T03:41:20.339Z,101022.88
2022-08-10T03:43:50.724Z,101017.44
2022-08-10T03:46:22.037Z,101021.25
2022-08-10T03:48:55.818Z,101020.59
2022-08-10T03:51:27.833Z,101029.72
2022-08-10T03:54:03.257Z,101021.31
2022-08-10T03:56:33.172Z,101030.34
2022-08-10T03:59:02.206Z,101041.78
2022-08-10T04:02:46.744Z,101039.91
2022-08-10T04:04:24.543Z,101030.38
2022-08-10T04:06:57.272Z,101054.97
2022-08-10T04:09:53.525Z,101054.13
2022-08-10T04:12:28.944Z,101034.63
2022-08-10T04:14:56.895Z,101045.59
2022-08-10T04:17:57.081Z,101057.81
2022-08-10T04:20:36.975Z,101064.25
2022-08-10T04:23:24.449Z,101053.53
2022-08-10T04:25:53.793Z,101053.22
2022-08-10T04:28:22.690Z,101059.38
2022-08-10T04:30:53.761Z,101053.88
2022-08-10T04:33:24.761Z,101066.41
2022-08-10T04:35:53.526Z,101063.66
2022-08-10T04:38:25.245Z,101068.38
2022-08-10T04:40:54.226Z,101070.13
2022-08-10T04:43:22.310Z,101058.00
2022-08-10T04:45:51.913Z,101074.56
2022-08-10T04:48:41.229Z,101076.16
2022-08-10T04:51:17.662Z,101069.38
2022-08-10T04:54:05.184Z,101066.53
2022-08-10T04:56:38.548Z,101063.06
2022-08-10T04:59:09.451Z,101070.75
2022-08-10T05:02:22.744Z,101068.38
2022-08-10T05:04:35.020Z,101072.59
2022-08-10T05:07:16.816Z,101065.97
2022-08-10T05:10:01.859Z,101060.66
2022-08-10T05:12:37.393Z,101062.53
2022-08-10T05:15:12.496Z,101061.53
2022-08-10T05:18:08.277Z,101070.19
2022-08-10T05:20:31.250Z,101058.06
2022-08-10T05:22:59.640Z,101073.56
2022-08-10T05:25:27.923Z,101072.59
2022-08-10T05:27:57.703Z,101070.19
2022-08-10T05:30:26.568Z,101073.44
2022-08-10T05:32:57.164Z,101072.69
2022-08-10T05:35:55.528Z,101082.97
2022-08-10T05:38:38.466Z,101077.16
2022-08-10T05:41:06.822Z,101078.41
2022-08-10T05:43:35.039Z,101093.47
2022-08-10T05:46:18.084Z,101082.50
2022-08-10T05:48:59.146Z,101091.63
2022-08-10T05:51:30.201Z,101095.72
2022-08-10T05:54:06.111Z,101091.91
2022-08-10T05:56:55.249Z,101084.97
2022-08-10T06:00:33.383Z,101088.44
2022-08-10T06:02:35.506Z,101097.09
2022-08-10T06:05:08.744Z,101087.22
2022-08-10T06:08:08.689Z,101105.31
2022-08-10T06:10:45.193Z,101105.31
2022-08-10T06:13:57.925Z,101107.88
2022-08-10T06:16:35.961Z,101103.84
2022-08-10T06:19:04.209Z,101106.06
2022-08-10T06:21:33.490Z,101109.19
2022-08-10T06:24:03.653Z,101108.72
2022-08-10T06:26:31.763Z,101096.75
2022-08-10T06:29:10.420Z,101100.63
2022-08-10T06:31:49.794Z,101101.53
2022-08-10T06:34:35.987Z,101110.31
2022-08-10T06:37:07.577Z,101096.25
2022-08-10T06:39:37.359Z,101104.88
2022-08-10T06:42:52.418Z,101103.59
2022-08-10T06:45:31.668Z,101113.94
2022-08-10T06:48:32.446Z,101116.53
2022-08-10T06:51:07.174Z,101108.72
2022-08-10T06:53:52.047Z,101102.53
2022-08-10T06:56:37.442Z,101102.50
2022-08-10T06:59:22.046Z,101107.69
2022-08-10T07:02:14.712Z,101098.28
2022-08-10T07:05:04.187Z,101107.72
2022-08-10T07:07:39.277Z,101093.00
2022-08-10T07:10:41.097Z,101101.50
2022-08-10T07:14:14.021Z,101099.84
2022-08-10T07:16:33.832Z,101100.31
2022-08-10T07:19:20.663Z,101110.06
2022-08-10T07:22:10.186Z,101100.03
2022-08-10T07:25:06.986Z,101099.09
2022-08-10T07:28:00.836Z,101093.56
2022-08-10T07:31:01.731Z,101091.91
2022-08-10T07:33:29.055Z,101092.81
2022-08-10T07:36:01.433Z,101087.25
2022-08-10T07:39:16.786Z,101097.13
2022-08-10T07:41:42.537Z,101095.16
2022-08-10T07:44:29.871Z,101080.06
2022-08-10T07:47:18.672Z,101093.00
2022-08-10T07:50:11.224Z,101101.81
2022-08-10T07:52:55.506Z,101091.78
2022-08-10T07:56:01.419Z,101093.38
2022-08-10T07:58:57.980Z,101076.31
2022-08-10T08:01:38.483Z,101081.09
2022-08-10T08:04:31.531Z,101081.53
2022-08-10T08:07:18.351Z,101094.31
2022-08-10T08:10:00.988Z,101088.31
2022-08-10T08:12:58.073Z,101090.91
2022-08-10T08:16:19.613Z,101088.59
2022-08-10T08:18:37.907Z,101081.28
2022-08-10T08:24:08.802Z,101095.34
2022-08-10T08:24:24.066Z,101090.31
2022-08-10T08:27:00.033Z,101090.59
2022-08-10T08:29:31.294Z,101089.63
2022-08-10T08:32:02.648Z,101090.50
2022-08-10T08:34:34.368Z,101098.81
2022-08-10T08:37:07.302Z,101093.63
2022-08-10T08:39:37.502Z,101103.81
2022-08-10T08:42:49.468Z,101087.25
2022-08-10T08:45:48.212Z,101099.34
2022-08-10T08:49:11.182Z,101095.59
2022-08-10T08:52:18.203Z,101089.13
2022-08-10T08:56:06.120Z,101096.47
2022-08-10T08:58:48.123Z,101092.28
2022-08-10T09:01:38.164Z,101086.25
2022-08-10T09:04:31.429Z,101099.31
2022-08-10T09:07:59.175Z,101094.28
2022-08-10T09:10:37.195Z,101084.38
2022-08-10T09:14:00.477Z,101061.03
2022-08-10T09:16:53.920Z,101063.44
2022-08-10T09:19:51.383Z,101072.06
2022-08-10T09:22:58.952Z,101089.72
2022-08-10T09:25:35.868Z,101070.56
2022-08-10T09:28:12.116Z,101057.88
2022-08-10T09:31:21.563Z,101069.91
2022-08-10T09:36:21.414Z,101068.44
2022-08-10T09:37:22.007Z,101041.22
2022-08-10T09:40:12.355Z,101051.69
2022-08-10T09:43:25.563Z,101069.59
2022-08-10T09:46:28.955Z,101056.47
2022-08-10T09:49:25.898Z,101068.69
2022-08-10T09:52:22.016Z,101051.31
2022-08-10T09:55:15.765Z,101060.63
2022-08-10T09:58:28.678Z,101052.22
2022-08-10T10:01:56.328Z,101054.78
2022-08-10T10:04:33.304Z,101039.59
2022-08-10T10:07:10.894Z,101043.75
2022-08-10T10:10:20.108Z,101060.09
2022-08-10T10:13:07.172Z,101040.44
2022-08-10T10:15:51.010Z,101041.81
2022-08-10T10:18:28.128Z,101055.75
2022-08-10T10:21:01.407Z,101055.28
2022-08-10T10:24:21.076Z,101035.06
2022-08-10T10:27:39.100Z,101049.31
2022-08-10T10:30:13.394Z,101038.19
2022-08-10T10:33:14.518Z,101033.94
2022-08-10T10:35:55.032Z,101018.91
2022-08-10T10:38:32.146Z,101036.78
2022-08-10T10:41:56.008Z,101021.25
2022-08-10T10:44:52.516Z,101012.28
2022-08-10T10:48:23.948Z,101014.38
2022-08-10T10:51:15.213Z,100990.38
2022-08-10T10:58:00.257Z,100994.19
2022-08-10T11:00:32.327Z,100991.56
2022-08-10T11:07:39.536Z,101005.22
2022-08-10T11:11:20.547Z,100998.22
2022-08-10T11:14:36.314Z,100986.22
2022-08-10T11:17:34.688Z,101000.81
2022-08-10T11:20:32.493Z,100994.66
2022-08-10T11:23:41.274Z,100980.59
2022-08-10T11:27:17.401Z,100980.84
2022-08-10T11:30:19.966Z,100983.22
2022-08-10T11:33:07.777Z,100976.56
2022-08-10T11:40:18.830Z,100973.66
2022-08-10T11:44:37.414Z,100979.16
2022-08-10T11:46:34.738Z,100963.91
2022-08-10T11:49:29.356Z,100965.28
2022-08-10T11:52:26.759Z,100970.59
2022-08-10T11:55:15.497Z,100966.31
2022-08-10T12:01:29.437Z,100952.91
2022-08-10T12:04:13.355Z,100962.22
2022-08-10T12:06:56.044Z,100957.06
2022-08-10T12:10:10.300Z,100946.25
2022-08-10T12:12:19.188Z,100935.97
2022-08-10T12:15:12.744Z,100929.78
2022-08-10T12:17:51.144Z,100941.63
2022-08-10T12:20:31.843Z,100934.59
2022-08-10T12:23:41.922Z,100940.81
2022-08-10T12:26:22.536Z,100931.72
2022-08-10T12:29:09.152Z,100941.16
2022-08-10T12:32:06.786Z,100925.84
2022-08-10T12:35:04.614Z,100919.00
2022-08-10T12:37:50.891Z,100936.50
2022-08-10T12:40:36.171Z,100936.34
2022-08-10T12:44:07.186Z,100924.50
2022-08-10T12:46:39.169Z,100912.97
2022-08-10T12:50:29.531Z,100911.94
2022-08-10T12:53:11.174Z,100914.19
2022-08-10T12:55:40.476Z,100908.16
2022-08-10T12:58:59.691Z,100893.91
2022-08-10T13:01:16.720Z,100906.41
2022-08-10T13:04:23.422Z,100890.09
2022-08-10T13:06:50.093Z,100894.03
2022-08-10T13:09:26.045Z,100886.66
2022-08-10T13:12:34.393Z,100885.31
2022-08-10T13:15:48.888Z,100897.66
2022-08-10T13:18:41.797Z,100885.31
2022-08-10T13:21:19.709Z,100871.41
2022-08-10T13:24:13.201Z,100874.81
2022-08-10T13:27:25.794Z,100869.88
2022-08-10T13:30:10.322Z,100861.63
2022-08-10T13:32:50.280Z,100863.13
2022-08-10T13:35:22.300Z,100844.59
2022-08-10T13:37:59.985Z,100854.56
2022-08-10T13:40:33.128Z,100859.53
2022-08-10T13:43:16.250Z,100851.78
2022-08-10T13:45:53.543Z,100842.84
2022-08-10T13:48:42.563Z,100854.00
2022-08-10T13:51:15.835Z,100839.75
2022-08-10T13:53:47.457Z,100855.50
2022-08-10T13:56:18.745Z,100842.81
2022-08-10T13:58:55.334Z,100839.66
2022-08-10T14:01:33.149Z,100835.03
2022-08-10T14:04:04.114Z,100840.72
2022-08-10T14:06:42.106Z,100830.03
2022-08-10T14:09:17.948Z,100831.59
2022-08-10T14:11:51.441Z,100832.59
2022-08-10T14:14:21.953Z,100825.91
2022-08-10T14:16:57.888Z,100808.03
2022-08-10T14:19:36.705Z,100822.06
2022-08-10T14:22:42.334Z,100818.44
2022-08-10T14:25:23.514Z,100810.03
2022-08-10T14:28:07.128Z,100814.91
2022-08-10T14:30:35.919Z,100813.47
2022-08-10T14:33:20.819Z,100821.81
2022-08-10T14:36:18.515Z,100805.38
2022-08-10T14:39:05.570Z,100803.84
2022-08-10T14:42:04.455Z,100801.84
2022-08-10T14:44:35.392Z,100803.91
2022-08-10T14:47:52.560Z,100788.78
2022-08-10T14:50:34.689Z,100796.19
2022-08-10T14:53:26.848Z,100804.09
2022-08-10T14:56:08.380Z,100794.13
2022-08-10T14:59:07.058Z,100793.44
2022-08-10T15:02:00.401Z,100789.84
2022-08-10T15:04:37.613Z,100769.06
2022-08-10T15:07:34.869Z,100784.94
2022-08-10T15:10:09.821Z,100777.78
2022-08-10T15:12:40.920Z,100782.94
2022-08-10T15:15:16.497Z,100776.09
2022-08-10T15:17:53.022Z,100782.44
2022-08-10T15:20:29.961Z,100783.84
2022-08-10T15:23:30.647Z,100785.19
2022-08-10T15:26:11.093Z,100772.53
2022-08-10T15:29:22.385Z,100766.88
2022-08-10T15:32:01.426Z,100766.38
2022-08-10T15:34:52.868Z,100770.47
2022-08-10T15:37:47.088Z,100764.47
2022-08-10T15:40:23.875Z,100764.59
2022-08-10T15:43:05.574Z,100740.41
2022-08-10T15:46:20.619Z,100747.91
2022-08-10T15:49:07.879Z,100746.03
2022-08-10T15:51:58.242Z,100744.13
2022-08-10T15:54:39.072Z,100743.16
2022-08-10T15:57:27.891Z,100744.69
2022-08-10T16:00:17.321Z,100747.44
2022-08-10T16:03:08.222Z,100753.13
2022-08-10T16:06:01.989Z,100755.03
2022-08-10T16:08:56.209Z,100752.63
2022-08-10T16:11:38.724Z,100735.81
2022-08-10T16:14:18.479Z,100736.63
2022-08-10T16:16:56.428Z,100729.44
2022-08-10T16:19:26.790Z,100741.09
2022-08-10T16:22:36.265Z,100733.03
2022-08-10T16:25:15.783Z,100729.44
2022-08-10T16:27:45.089Z,100719.50
2022-08-10T16:30:15.233Z,100734.06
2022-08-10T16:32:49.363Z,100723.63
2022-08-10T16:35:27.862Z,100726.69
2022-08-10T16:37:59.834Z,100720.00
2022-08-10T16:40:30.547Z,100728.56
2022-08-10T16:43:05.232Z,100721.06
2022-08-10T16:45:50.870Z,100721.22
2022-08-10T16:48:48.733Z,100721.59
2022-08-10T16:51:22.286Z,100721.59
2022-08-10T16:53:53.043Z,100718.16
2022-08-10T16:56:48.871Z,100715.22
2022-08-10T16:59:24.290Z,100721.56
2022-08-10T17:01:58.159Z,100700.44
2022-08-10T17:04:29.627Z,100721.00
2022-08-10T17:07:03.425Z,100707.78
2022-08-10T17:09:36.423Z,100718.59
2022-08-10T17:12:11.659Z,100713.94
2022-08-10T17:14:46.249Z,100707.94
2022-08-10T17:17:31.061Z,100716.50
2022-08-10T17:20:31.892Z,100707.41
2022-08-10T17:23:00.673Z,100706.34
2022-08-10T17:25:48.322Z,100710.44
2022-08-10T17:28:35.268Z,100698.44
2022-08-10T17:31:53.909Z,100700.66
2022-08-10T17:34:23.680Z,100702.75
2022-08-10T17:36:58.768Z,100702.75
2022-08-10T17:39:49.957Z,100698.66
2022-08-10T17:42:24.498Z,100704.34
2022-08-10T17:44:55.792Z,100710.16
2022-08-10T17:47:28.129Z,100715.34
2022-08-10T17:50:00.705Z,100698.72
2022-08-10T17:52:33.410Z,100706.28
2022-08-10T17:55:06.363Z,100711.22
2022-08-10T17:57:40.462Z,100703.41
2022-08-10T18:00:17.066Z,100703.41
2022-08-10T18:02:49.566Z,100708.22
2022-08-10T18:05:20.549Z,100713.72
2022-08-10T18:07:56.446Z,100713.41
2022-08-10T18:10:25.904Z,100707.25
2022-08-10T18:12:56.329Z,100711.53
2022-08-10T18:15:28.970Z,100706.91
2022-08-10T18:18:03.701Z,100715.81
2022-08-10T18:20:38.557Z,100707.09
2022-08-10T18:23:08.557Z,100711.03
2022-08-10T18:25:43.913Z,100717.91
2022-08-10T18:28:19.925Z,100721.88
2022-08-10T18:30:52.991Z,100711.75
2022-08-10T18:33:32.235Z,100717.75
2022-08-10T18:36:09.876Z,100719.13
2022-08-10T18:38:43.989Z,100720.88
2022-08-10T18:41:38.867Z,100711.75
2022-08-10T18:44:44.994Z,100722.19
2022-08-10T18:47:27.051Z,100720.50
2022-08-10T18:50:12.456Z,100715.00
2022-08-10T18:52:47.359Z,100725.47
2022-08-10T18:56:10.239Z,100732.50
2022-08-10T18:59:15.978Z,100732.31
2022-08-10T19:02:17.608Z,100723.53
2022-08-10T19:05:31.359Z,100741.31
2022-08-10T19:08:48.758Z,100735.63
2022-08-10T19:11:33.896Z,100743.31
2022-08-10T19:14:36.055Z,100738.69
2022-08-10T19:18:02.839Z,100738.16
2022-08-10T19:20:32.672Z,100734.69
2022-08-10T19:23:51.808Z,100742.56
2022-08-10T19:26:46.268Z,100739.06
2022-08-10T19:30:09.037Z,100750.16
2022-08-10T19:33:25.727Z,100752.13
2022-08-10T19:36:45.137Z,100751.44
2022-08-10T19:39:51.126Z,100750.66
2022-08-10T19:42:57.010Z,100763.31
2022-08-10T19:46:14.059Z,100771.72
2022-08-10T19:49:08.517Z,100773.59
2022-08-10T19:52:11.893Z,100778.19
2022-08-10T19:55:42.386Z,100780.84
2022-08-10T19:58:59.391Z,100770.00
2022-08-10T20:01:55.604Z,100782.59
2022-08-10T20:04:32.532Z,100770.38
2022-08-10T20:07:24.881Z,100765.09
2022-08-10T20:10:20.716Z,100767.22
2022-08-10T20:13:44.013Z,100768.97
2022-08-10T20:16:41.030Z,100759.75
2022-08-10T20:19:53.378Z,100783.34
2022-08-10T20:22:37.439Z,100758.47
2022-08-10T20:25:28.094Z,100783.53
2022-08-10T20:28:07.947Z,100781.66
2022-08-10T20:30:46.867Z,100760.63
2022-08-10T20:33:31.452Z,100777.88
2022-08-10T20:36:37.868Z,100776.59
2022-08-10T20:39:19.606Z,100784.47
2022-08-10T20:42:27.096Z,100766.81
2022-08-10T20:45:27.426Z,100782.63
2022-08-10T20:48:22.900Z,100769.69
2022-08-10T20:51:13.973Z,100778.16
2022-08-10T20:53:59.060Z,100775.16
2022-08-10T20:57:55.081Z,100771.88
2022-08-10T21:00:23.280Z,100760.69
2022-08-10T21:03:43.576Z,100765.72
2022-08-10T21:07:28.248Z,100770.63
2022-08-10T21:10:26.918Z,100777.94
2022-08-10T21:13:49.521Z,100777.94
2022-08-10T21:16:59.185Z,100778.53
2022-08-10T21:20:11.398Z,100767.47
2022-08-10T21:22:47.193Z,100779.81
2022-08-10T21:25:47.949Z,100763.03
2022-08-10T21:29:10.148Z,100769.63
2022-08-10T21:32:35.815Z,100768.75
2022-08-10T21:35:37.688Z,100750.84
2022-08-10T21:38:43.937Z,100767.78
2022-08-10T21:45:59.601Z,100780.22
2022-08-10T21:49:22.890Z,100768.31
2022-08-10T21:52:33.303Z,100774.50
2022-08-10T21:55:34.486Z,100774.06
2022-08-10T21:59:12.808Z,100757.84
2022-08-10T22:02:28.380Z,100763.56
2022-08-10T22:05:39.011Z,100772.28
2022-08-10T22:08:29.927Z,100767.38
2022-08-10T22:11:37.384Z,100757.78
2022-08-10T22:14:34.103Z,100761.34
2022-08-10T22:18:00.768Z,100757.31
2022-08-10T22:20:52.574Z,100766.47
2022-08-10T22:24:33.274Z,100773.38
2022-08-10T22:27:46.244Z,100779.97
2022-08-10T22:30:38.194Z,100768.91
2022-08-10T22:31:25.113Z,100768.91
2022-08-10T22:34:11.967Z,100764.44
2022-08-10T22:37:20.912Z,100770.72
2022-08-10T22:40:41.291Z,100758.09
2022-08-10T22:43:48.841Z,100765.66
2022-08-10T22:48:27.438Z,100771.78
2022-08-10T22:51:15.439Z,100782.72
2022-08-10T22:54:30.166Z,100788.03
2022-08-10T22:57:22.580Z,100781.78
2022-08-10T22:59:51.550Z,100794.78
2022-08-10T23:02:29.461Z,100791.06
2022-08-10T23:05:12.962Z,100793.78
2022-08-10T23:07:58.562Z,100790.34
2022-08-10T23:10:34.040Z,100784.31
2022-08-10T23:13:41.920Z,100782.59
2022-08-10T23:16:43.195Z,100783.31
2022-08-10T23:19:20.834Z,100781.56
2022-08-10T23:22:10.969Z,100791.22
2022-08-10T23:25:03.322Z,100794.22
2022-08-10T23:27:39.676Z,100787.88
2022-08-10T23:30:17.609Z,100778.09
2022-08-10T23:32:52.173Z,100782.81
2022-08-10T23:36:29.787Z,100784.69
2022-08-10T23:38:20.789Z,100780.91
2022-08-10T23:41:11.293Z,100773.41
2022-08-10T23:44:04.242Z,100774.41
2022-08-10T23:46:39.966Z,100782.69
2022-08-10T23:49:12.436Z,100777.50
2022-08-10T23:51:55.985Z,100780.13
2022-08-10T23:54:26.546Z,100782.44
2022-08-10T23:57:01.771Z,100776.41
2022-08-10T23:59:35.033Z,100772.63
